Time;durP1;ratioP1;P1;durP2;ratioP2;P2;SDS_P1;SDS_P2;PMS_P1;PMS_P2;Temp;Humidity;BMP_temperature;BMP_pressure;BME280_temperature;BME280_humidity;BME280_pressure;Samples;Min_cycle;Max_cycle;Signal;HPM_P1;HPM_P2
2021/07/12 00:00:46;;;;;;;;;2.50;2.50;;;;;26.41;42.97;100880.38;5060977;28;45273;-72
2021/07/12 00:03:12;;;;;;;;;4.25;3.00;;;;;26.57;42.98;100910.31;5059674;28;45348;-72
2021/07/12 00:05:40;;;;;;;;;3.25;3.00;;;;;26.46;43.04;100879.78;5060817;28;45337;-72
2021/07/12 00:08:06;;;;;;;;;4.00;4.00;;;;;26.45;43.11;100886.13;5060808;28;45545;-72
2021/07/12 00:10:31;;;;;;;;;2.50;2.00;;;;;26.56;43.24;100896.16;5059834;28;45241;-72
2021/07/12 00:12:57;;;;;;;;;1.75;1.75;;;;;26.41;43.25;100881.16;5060865;28;45438;-72
2021/07/12 00:15:24;;;;;;;;;3.00;3.00;;;;;26.63;43.04;100904.13;5059673;28;45404;-72
2021/07/12 00:17:50;;;;;;;;;3.50;3.50;;;;;26.28;43.27;100852.69;5060426;28;46315;-72
2021/07/12 00:20:16;;;;;;;;;2.50;2.50;;;;;26.44;42.65;100876.50;5060642;28;45280;-72
2021/07/12 00:22:44;;;;;;;;;2.00;2.00;;;;;26.52;42.60;100881.59;5061013;28;45277;-72
2021/07/12 00:25:10;;;;;;;;;3.00;3.00;;;;;26.28;42.88;100846.56;5058173;28;45346;-72
2021/07/12 00:27:37;;;;;;;;;4.25;3.00;;;;;26.41;43.14;100880.38;5060578;28;46296;-72
2021/07/12 00:30:05;;;;;;;;;2.00;1.33;;;;;26.47;42.78;100882.22;5061673;28;45287;-72
2021/07/12 00:32:31;;;;;;;;;2.00;2.00;;;;;26.61;43.00;100904.34;5060403;28;45311;-72
2021/07/12 00:34:56;;;;;;;;;2.00;2.00;;;;;26.59;43.03;100903.75;5060412;28;45310;-72
2021/07/12 00:37:22;;;;;;;;;2.00;2.00;;;;;26.56;43.08;100904.16;5070402;28;46537;-72
2021/07/12 00:39:47;;;;;;;;;2.00;2.00;;;;;26.32;43.48;100868.28;5060277;28;45487;-72
2021/07/12 00:42:13;;;;;;;;;2.00;2.00;;;;;26.51;42.90;100902.13;5071929;28;45318;-72
2021/07/12 00:44:39;;;;;;;;;3.00;3.00;;;;;26.48;43.10;100894.53;5060250;28;45562;-72
2021/07/12 00:47:06;;;;;;;;;3.00;3.00;;;;;26.57;42.85;100915.66;5058556;28;46933;-72
2021/07/12 00:49:32;;;;;;;;;2.25;2.25;;;;;26.43;42.67;100896.16;5058459;28;45361;-72
2021/07/12 00:51:58;;;;;;;;;2.25;1.75;;;;;26.39;42.89;100893.91;5058559;28;45446;-72
2021/07/12 00:54:27;;;;;;;;;2.00;0.50;;;;;26.47;42.75;100910.75;5059870;28;45243;-72
2021/07/12 00:56:58;;;;;;;;;1.25;1.25;;;;;26.63;42.65;100933.47;5060134;28;45587;-72
2021/07/12 00:59:23;;;;;;;;;1.67;1.67;;;;;26.45;42.71;100908.28;5058291;28;46194;-72
2021/07/12 01:01:49;;;;;;;;;2.50;2.50;;;;;26.56;42.96;100916.69;5058742;28;45186;-72
2021/07/12 01:04:14;;;;;;;;;2.00;2.00;;;;;26.48;42.87;100909.72;5059804;28;45162;-72
2021/07/12 01:06:40;;;;;;;;;3.00;3.00;;;;;26.56;42.86;100919.34;5060249;28;45253;-71
2021/07/12 01:09:05;;;;;;;;;2.25;2.25;;;;;26.68;42.74;100936.34;5059577;28;45283;-72
2021/07/12 01:11:47;;;;;;;;;3.00;3.00;;;;;26.70;42.71;100936.16;5060340;28;45286;-72
2021/07/12 01:14:26;;;;;;;;;2.75;2.75;;;;;26.58;42.99;100923.44;5067442;28;45277;-72
2021/07/12 01:17:19;;;;;;;;;2.00;2.00;;;;;26.70;42.93;100933.47;5078541;28;46802;-72
2021/07/12 01:20:35;;;;;;;;;2.33;2.33;;;;;26.70;43.13;100933.47;5080244;28;45286;-72
2021/07/12 01:23:12;;;;;;;;;2.00;2.00;;;;;26.69;42.68;100932.66;5075615;28;45172;-72
2021/07/12 01:26:06;;;;;;;;;3.25;2.25;;;;;26.54;42.84;100900.91;5080265;28;45515;-72
2021/07/12 01:28:58;;;;;;;;;2.75;2.75;;;;;26.69;43.10;100927.31;5064754;28;46380;-71
2021/07/12 01:31:42;;;;;;;;;4.33;2.00;;;;;26.67;42.80;100920.56;5063753;28;45425;-72
2021/07/12 01:34:13;;;;;;;;;2.67;2.67;;;;;26.65;42.78;100915.41;5058374;28;45338;-71
2021/07/12 01:36:41;;;;;;;;;2.75;2.75;;;;;26.67;42.84;100920.56;5064277;28;45275;-72
2021/07/12 01:39:18;;;;;;;;;3.67;3.67;;;;;26.59;42.80;100908.25;5070789;28;46726;-72
2021/07/12 01:41:55;;;;;;;;;2.00;2.00;;;;;26.57;42.90;100903.13;5070723;28;45401;-71
2021/07/12 01:44:41;;;;;;;;;2.00;2.00;;;;;26.66;42.84;100905.56;5083536;28;45796;-72
2021/07/12 01:47:08;;;;;;;;;2.00;2.00;;;;;26.64;42.90;100892.44;5082058;28;45804;-72
2021/07/12 01:49:56;;;;;;;;;2.00;2.00;;;;;26.38;43.01;100849.59;5082833;28;45479;-72
2021/07/12 01:52:30;;;;;;;;;3.00;3.00;;;;;26.57;43.10;100875.66;5056919;28;45516;-72
2021/07/12 01:55:08;;;;;;;;;2.00;2.00;;;;;26.52;43.03;100871.75;5061761;28;45360;-72
2021/07/12 01:57:41;;;;;;;;;2.00;2.00;;;;;26.52;42.86;100874.41;5062539;28;45494;-72
2021/07/12 02:00:13;;;;;;;;;4.00;2.67;;;;;26.65;43.00;100883.38;5062644;28;46661;-72
2021/07/12 02:02:43;;;;;;;;;3.67;3.67;;;;;26.45;42.93;100862.94;5062391;28;45433;-72
2021/07/12 02:05:19;;;;;;;;;2.00;2.00;;;;;26.65;43.13;100893.28;5061661;28;45529;-71
2021/07/12 02:07:46;;;;;;;;;3.00;3.00;;;;;26.42;42.96;100852.66;5070694;28;45184;-70
2021/07/12 02:10:14;;;;;;;;;1.33;1.33;;;;;26.55;43.25;100873.16;5081565;28;47630;-71
2021/07/12 02:12:41;;;;;;;;;3.50;3.50;;;;;26.52;42.93;100865.56;5083188;28;45272;-72
2021/07/12 02:15:07;;;;;;;;;2.75;2.75;;;;;26.39;42.77;100848.56;5081250;28;45424;-71
2021/07/12 02:17:36;;;;;;;;;2.00;2.00;;;;;26.47;42.89;100858.22;5082662;28;45200;-71
2021/07/12 02:20:07;;;;;;;;;2.75;2.75;;;;;26.57;42.98;100876.44;5082701;28;45428;-71
2021/07/12 02:22:34;;;;;;;;;3.00;3.00;;;;;26.63;43.11;100877.44;5082983;28;45256;-71
2021/07/12 02:25:01;;;;;;;;;2.00;2.00;;;;;26.58;42.90;100870.09;5082872;28;45433;-72
2021/07/12 02:27:28;;;;;;;;;3.75;3.00;;;;;26.50;42.71;100857.78;5082716;28;45309;-71
2021/07/12 02:29:55;;;;;;;;;1.75;1.75;;;;;26.49;42.98;100852.69;5079798;28;45659;-72
2021/07/12 02:32:22;;;;;;;;;3.00;3.00;;;;;26.63;43.26;100864.09;5062135;28;45261;-72
2021/07/12 02:34:50;;;;;;;;;2.33;2.33;;;;;26.52;43.19;100855.72;5060806;28;45324;-72
2021/07/12 02:37:17;;;;;;;;;2.25;2.00;;;;;26.52;43.05;100849.56;5072328;28;45294;-71
2021/07/12 02:39:46;;;;;;;;;2.25;2.25;;;;;26.54;42.81;100842.19;5065029;28;46450;-72
2021/07/12 02:42:12;;;;;;;;;2.00;2.00;;;;;26.51;43.26;100832.78;5073503;28;45284;-72
2021/07/12 02:44:40;;;;;;;;;2.00;2.00;;;;;26.49;43.08;100840.13;5082260;28;45259;-72
2021/07/12 02:47:06;;;;;;;;;2.00;2.00;;;;;26.50;42.85;100836.47;5082411;28;45466;-72
2021/07/12 02:49:33;;;;;;;;;2.00;2.00;;;;;26.37;43.08;100809.78;5081183;28;46701;-72
2021/07/12 02:52:07;;;;;;;;;3.00;3.00;;;;;26.56;42.81;100852.66;5082384;28;45337;-71
2021/07/12 02:54:39;;;;;;;;;3.00;2.75;;;;;26.57;43.52;100843.63;5082270;28;45346;-72
2021/07/12 02:57:05;;;;;;;;;2.00;2.00;;;;;26.63;43.25;100854.25;5069440;28;45235;-72
2021/07/12 02:59:30;;;;;;;;;2.33;2.33;;;;;26.52;43.05;100842.41;5061530;28;47683;-72
2021/07/12 03:01:56;;;;;;;;;3.00;3.00;;;;;26.49;43.06;100829.47;5061953;28;45523;-72
2021/07/12 03:04:21;;;;;;;;;1.00;1.00;;;;;26.22;42.92;100789.53;5061327;28;45388;-71
2021/07/12 03:06:50;;;;;;;;;2.00;2.00;;;;;26.48;42.71;100816.34;5061119;28;45473;-72
2021/07/12 03:09:25;;;;;;;;;3.75;3.00;;;;;26.51;43.34;100827.44;5061627;28;46486;-72
2021/07/12 03:12:07;;;;;;;;;2.50;2.50;;;;;26.61;42.63;100840.31;5061768;28;45309;-71
2021/07/12 03:14:45;;;;;;;;;2.00;2.00;;;;;26.48;42.85;100819.03;5061845;28;45342;-71
2021/07/12 03:17:14;;;;;;;;;2.50;2.50;;;;;26.40;43.56;100804.03;5061394;28;45364;-71
2021/07/12 03:19:41;;;;;;;;;2.67;2.67;;;;;26.49;43.52;100821.47;5061616;28;45454;-71
2021/07/12 03:22:10;;;;;;;;;2.25;2.25;;;;;26.54;42.97;100828.03;5060137;28;45379;-71
2021/07/12 03:24:38;;;;;;;;;1.75;1.75;;;;;26.50;43.22;100815.13;5061705;28;45233;-71
2021/07/12 03:27:07;;;;;;;;;2.67;2.67;;;;;26.44;43.17;100801.81;5061564;28;45161;-72
2021/07/12 03:29:36;;;;;;;;;2.00;2.00;;;;;26.60;42.86;100830.66;5062388;28;45344;-72
2021/07/12 03:32:04;;;;;;;;;2.25;2.25;;;;;26.46;43.11;100807.75;5061362;28;45223;-71
2021/07/12 03:34:31;;;;;;;;;3.00;2.00;;;;;26.43;43.47;100802.81;5061283;28;45307;-71
2021/07/12 03:36:59;;;;;;;;;3.25;3.25;;;;;26.54;42.92;100826.19;5081375;28;45400;-71
2021/07/12 03:39:26;;;;;;;;;1.67;1.67;;;;;26.59;43.00;100830.88;5076415;27;47227;-72
2021/07/12 03:41:52;;;;;;;;;2.25;2.25;;;;;26.56;42.79;100823.31;5069677;28;45278;-71
2021/07/12 03:44:18;;;;;;;;;2.00;2.00;;;;;26.52;43.28;100815.72;5081616;28;45211;-71
2021/07/12 03:46:45;;;;;;;;;2.00;2.00;;;;;26.55;43.12;100818.97;5080935;28;45558;-72
2021/07/12 03:49:18;;;;;;;;;2.00;2.00;;;;;26.46;42.95;100810.41;5081017;28;46321;-72
2021/07/12 03:51:46;;;;;;;;;2.50;2.50;;;;;26.46;42.92;100805.09;5081654;28;45312;-71
2021/07/12 03:54:13;;;;;;;;;2.00;2.00;;;;;26.48;43.11;100808.34;5080062;28;45382;-71
2021/07/12 03:56:38;;;;;;;;;2.50;1.00;;;;;26.59;43.23;100837.03;5081662;28;45317;-71
2021/07/12 03:59:03;;;;;;;;;2.75;2.75;;;;;26.44;43.07;100818.63;5070063;28;45434;-71
2021/07/12 04:01:29;;;;;;;;;3.00;3.00;;;;;26.38;43.35;100792.78;5060009;28;45363;-72
2021/07/12 04:03:55;;;;;;;;;2.00;2.00;;;;;26.38;43.07;100803.44;5059481;28;45336;-71
2021/07/12 04:06:21;;;;;;;;;2.25;2.25;;;;;26.32;43.08;100797.09;5061035;28;45667;-71
2021/07/12 04:08:47;;;;;;;;;3.75;3.75;;;;;26.46;43.16;100810.41;5060245;28;46703;-72
2021/07/12 04:11:14;;;;;;;;;2.25;2.25;;;;;26.60;43.03;100827.16;5060964;28;45309;-72
2021/07/12 04:13:40;;;;;;;;;2.00;1.00;;;;;26.46;43.21;100813.09;5060781;28;45253;-72
2021/07/12 04:16:05;;;;;;;;;3.00;2.25;;;;;26.49;43.35;100820.66;5060627;28;45539;-71
2021/07/12 04:18:31;;;;;;;;;1.50;1.50;;;;;26.53;43.00;100829.88;5060238;28;46565;-71
2021/07/12 04:20:56;;;;;;;;;2.00;2.00;;;;;26.41;43.42;100800.34;5061005;28;45357;-71
2021/07/12 04:23:22;;;;;;;;;2.00;1.75;;;;;26.57;43.09;100819.63;5060847;28;45698;-72
2021/07/12 04:25:47;;;;;;;;;2.00;2.00;;;;;26.39;43.29;100783.72;5060953;28;45238;-71
2021/07/12 04:28:13;;;;;;;;;2.00;2.00;;;;;26.46;42.91;100800.56;5060349;28;46313;-71
2021/07/12 04:30:38;;;;;;;;;2.67;2.00;;;;;26.48;43.16;100800.34;5063153;28;45266;-72
2021/07/12 04:33:04;;;;;;;;;2.33;2.33;;;;;26.54;43.06;100804.84;5060476;28;45320;-71
2021/07/12 04:35:29;;;;;;;;;4.00;3.00;;;;;26.38;43.40;100785.59;5060673;28;45464;-72
2021/07/12 04:37:55;;;;;;;;;2.75;2.75;;;;;26.54;43.33;100806.69;5072250;28;45495;-71
2021/07/12 04:40:20;;;;;;;;;1.00;1.00;;;;;26.44;42.74;100796.47;5060571;28;45320;-71
2021/07/12 04:42:46;;;;;;;;;2.75;2.75;;;;;26.58;43.26;100814.06;5063145;27;45397;-71
2021/07/12 04:45:12;;;;;;;;;2.33;2.33;;;;;26.50;43.09;100803.63;5058802;28;45304;-72
2021/07/12 04:47:38;;;;;;;;;2.00;2.00;;;;;26.58;43.03;100811.38;5058628;28;47071;-72
2021/07/12 04:50:05;;;;;;;;;3.00;3.00;;;;;26.39;43.42;100786.38;5060171;28;45236;-72
2021/07/12 04:52:31;;;;;;;;;3.00;3.00;;;;;26.56;43.34;100807.28;5058945;28;45288;-71
2021/07/12 04:54:57;;;;;;;;;2.33;2.33;;;;;26.55;42.83;100802.97;5075695;28;45348;-71
2021/07/12 04:57:22;;;;;;;;;1.50;1.50;;;;;26.37;43.28;100777.78;5060025;28;45508;-71
2021/07/12 04:59:48;;;;;;;;;2.25;2.25;;;;;26.51;42.85;100795.41;5058359;28;45370;-76
2021/07/12 05:02:13;;;;;;;;;3.33;3.00;;;;;26.43;43.52;100778.78;5059641;28;45957;-78
2021/07/12 05:04:40;;;;;;;;;2.25;2.25;;;;;26.40;42.71;100770.19;5060151;28;45407;-77
2021/07/12 05:07:06;;;;;;;;;2.00;2.00;;;;;26.37;42.98;100759.13;5075400;28;48120;-76
2021/07/12 05:09:32;;;;;;;;;2.00;2.00;;;;;26.39;43.55;100762.38;5059782;28;45660;-76
2021/07/12 05:11:58;;;;;;;;;2.33;2.33;;;;;26.51;43.16;100775.91;5059475;28;45255;-72
2021/07/12 05:14:25;;;;;;;;;5.00;3.00;;;;;26.56;43.30;100775.28;5062061;28;45239;-70
2021/07/12 05:16:52;;;;;;;;;2.25;2.25;;;;;26.54;43.34;100770.16;5068814;28;46048;-70
2021/07/12 05:19:18;;;;;;;;;4.00;3.00;;;;;26.52;43.43;100770.34;5071056;28;45462;-70
2021/07/12 05:21:43;;;;;;;;;2.00;2.00;;;;;26.54;43.86;100764.00;5074176;28;45464;-70
2021/07/12 05:24:08;;;;;;;;;2.25;2.00;;;;;26.50;43.33;100748.41;5078857;27;45545;-70
2021/07/12 05:26:34;;;;;;;;;3.00;3.00;;;;;26.39;43.84;100725.88;5077624;28;45342;-72
2021/07/12 05:29:00;;;;;;;;;3.25;2.00;;;;;26.60;43.81;100765.81;5074909;28;45314;-76
2021/07/12 05:31:26;;;;;;;;;2.75;2.75;;;;;26.60;43.73;100763.97;5075037;28;45471;-75
2021/07/12 05:33:51;;;;;;;;;2.00;2.00;;;;;26.52;43.50;100743.69;5095648;27;45294;-75
2021/07/12 05:36:17;;;;;;;;;3.00;3.00;;;;;26.61;43.48;100756.78;5077071;28;47302;-77
2021/07/12 05:38:42;;;;;;;;;3.75;2.00;;;;;26.46;44.01;100733.88;5074206;28;45241;-73
2021/07/12 05:41:08;;;;;;;;;2.50;2.25;;;;;26.32;43.85;100708.25;5060935;28;45308;-73
2021/07/12 05:43:33;;;;;;;;;2.25;2.25;;;;;26.60;43.75;100745.28;5077178;28;45527;-73
2021/07/12 05:45:59;;;;;;;;;4.00;3.00;;;;;26.54;43.85;100743.50;5079348;28;45486;-73
2021/07/12 05:48:24;;;;;;;;;2.00;2.00;;;;;26.39;43.75;100715.19;5078188;28;45236;-72
2021/07/12 05:50:50;;;;;;;;;2.00;2.00;;;;;26.54;43.88;100730.16;5075150;28;45283;-73
2021/07/12 05:53:16;;;;;;;;;3.00;3.00;;;;;26.48;43.63;100706.97;5059704;28;45339;-73
2021/07/12 05:55:42;;;;;;;;;2.00;2.00;;;;;26.46;43.90;100701.88;5059135;28;46526;-73
2021/07/12 05:58:08;;;;;;;;;2.50;2.50;;;;;26.39;43.84;100701.03;5059059;28;45443;-73
2021/07/12 06:00:34;;;;;;;;;3.00;3.00;;;;;26.58;43.45;100733.19;5059314;28;45516;-73
2021/07/12 06:02:59;;;;;;;;;2.00;2.00;;;;;26.48;43.78;100714.97;5057822;28;45556;-72
2021/07/12 06:05:25;;;;;;;;;2.00;2.00;;;;;26.57;43.83;100735.03;5058945;28;45302;-73
2021/07/12 06:07:50;;;;;;;;;4.00;2.00;;;;;26.57;43.61;100732.38;5058058;28;45332;-72
2021/07/12 06:10:16;;;;;;;;;3.00;2.33;;;;;26.55;43.75;100721.09;5058853;28;45324;-73
2021/07/12 06:12:42;;;;;;;;;4.00;2.25;;;;;26.56;43.47;100725.41;5059728;28;45245;-72
2021/07/12 06:15:08;;;;;;;;;1.67;1.67;;;;;26.56;43.61;100725.41;5059024;28;45371;-72
2021/07/12 06:17:34;;;;;;;;;4.00;4.00;;;;;26.46;43.98;100707.22;5059295;28;45251;-72
2021/07/12 06:20:00;;;;;;;;;2.75;2.75;;;;;26.62;43.81;100727.19;5059218;28;45506;-72
2021/07/12 06:22:27;;;;;;;;;3.00;3.00;;;;;26.31;43.85;100670.09;5059211;28;45666;-73
2021/07/12 06:24:52;;;;;;;;;2.50;2.50;;;;;26.43;43.77;100693.44;5061761;28;45277;-73
2021/07/12 06:27:18;;;;;;;;;2.00;2.00;;;;;26.59;43.88;100716.16;5062550;28;45325;-73
2021/07/12 06:29:43;;;;;;;;;2.00;2.00;;;;;26.46;43.55;100693.03;5064910;28;45358;-73
2021/07/12 06:32:09;;;;;;;;;2.00;2.00;;;;;26.41;43.85;100691.78;5062365;28;45330;-73
2021/07/12 06:34:34;;;;;;;;;3.67;2.67;;;;;26.55;43.91;100713.09;5062342;28;45403;-73
2021/07/12 06:37:00;;;;;;;;;2.00;2.00;;;;;26.49;44.22;100698.75;5064662;28;45258;-73
2021/07/12 06:39:26;;;;;;;;;2.00;2.00;;;;;26.37;44.06;100671.09;5062529;28;45338;-73
2021/07/12 06:41:51;;;;;;;;;2.00;2.00;;;;;26.58;44.21;100709.19;5070630;28;45626;-73
2021/07/12 06:44:17;;;;;;;;;3.00;3.00;;;;;26.29;43.72;100656.16;5082335;28;45485;-73
2021/07/12 06:46:42;;;;;;;;;2.00;2.00;;;;;26.44;43.74;100674.56;5080739;28;45333;-72
2021/07/12 06:49:08;;;;;;;;;3.00;3.00;;;;;26.56;43.61;100692.56;5080825;28;45291;-73
2021/07/12 06:51:33;;;;;;;;;3.33;3.33;;;;;26.39;43.84;100661.03;5082567;28;45227;-73
2021/07/12 06:54:00;;;;;;;;;2.00;2.00;;;;;26.36;43.54;100648.16;5081978;28;45535;-72
2021/07/12 06:56:26;;;;;;;;;4.00;3.00;;;;;26.31;43.78;100647.97;5082408;28;45314;-72
2021/07/12 06:58:51;;;;;;;;;2.00;2.00;;;;;26.51;43.83;100677.22;5082039;28;45446;-73
2021/07/12 07:01:17;;;;;;;;;2.25;2.25;;;;;26.54;43.28;100674.13;5081598;28;45496;-72
2021/07/12 07:03:43;;;;;;;;;2.00;2.00;;;;;26.35;43.58;100647.31;5081931;28;46298;-73
2021/07/12 07:06:08;;;;;;;;;3.00;3.00;;;;;26.41;43.49;100665.13;5082330;28;45420;-72
2021/07/12 07:08:34;;;;;;;;;2.00;2.00;;;;;26.41;43.80;100659.78;5082275;28;45314;-73
2021/07/12 07:10:59;;;;;;;;;4.00;2.75;;;;;26.25;43.60;100639.78;5082229;28;45268;-72
2021/07/12 07:13:24;;;;;;;;;2.00;2.00;;;;;26.43;43.41;100662.25;5081989;28;46217;-72
2021/07/12 07:15:50;;;;;;;;;2.25;2.25;;;;;26.66;43.64;100703.59;5080066;28;45362;-72
2021/07/12 07:18:16;;;;;;;;;2.00;2.00;;;;;26.55;43.97;100683.75;5097559;27;45378;-73
2021/07/12 07:20:42;;;;;;;;;2.33;2.33;;;;;26.59;43.55;100692.16;5081555;27;45324;-72
2021/07/12 07:23:08;;;;;;;;;3.00;2.00;;;;;26.57;44.23;100705.69;5081834;28;45389;-72
2021/07/12 07:25:33;;;;;;;;;2.75;2.00;;;;;26.56;43.38;100698.72;5081882;28;45296;-73
2021/07/12 07:27:59;;;;;;;;;1.25;1.25;;;;;26.66;43.47;100724.13;5080384;28;45646;-73
2021/07/12 07:30:25;;;;;;;;;3.00;2.50;;;;;26.57;43.92;100703.00;5073018;28;45566;-72
2021/07/12 07:32:50;;;;;;;;;3.75;2.25;;;;;26.66;43.50;100716.09;5061181;28;45436;-72
2021/07/12 07:35:17;;;;;;;;;4.00;3.00;;;;;26.52;43.57;100692.16;5061485;28;45232;-72
2021/07/12 07:37:43;;;;;;;;;1.50;1.50;;;;;26.65;43.54;100712.63;5069410;28;45368;-72
2021/07/12 07:40:09;;;;;;;;;4.00;3.75;;;;;26.45;43.60;100683.41;5061391;28;45296;-72
2021/07/12 07:42:35;;;;;;;;;4.75;3.00;;;;;26.54;44.38;100699.97;5074201;28;46698;-72
2021/07/12 07:45:02;;;;;;;;;1.25;1.25;;;;;26.47;43.79;100684.00;5081512;28;45525;-72
2021/07/12 07:47:28;;;;;;;;;2.67;2.67;;;;;26.62;44.07;100694.38;5076607;28;45322;-72
2021/07/12 07:49:54;;;;;;;;;3.00;3.00;;;;;26.46;43.61;100675.19;5059822;28;45426;-72
2021/07/12 07:52:19;;;;;;;;;2.00;2.00;;;;;26.39;43.71;100664.53;5061109;28;46353;-72
2021/07/12 07:54:45;;;;;;;;;3.00;3.00;;;;;26.52;43.75;100684.16;5061257;28;45236;-72
2021/07/12 07:57:11;;;;;;;;;3.00;3.00;;;;;26.56;43.71;100692.56;5059958;28;45204;-72
2021/07/12 07:59:36;;;;;;;;;3.00;3.00;;;;;26.64;43.83;100703.00;5079413;28;45592;-72
2021/07/12 08:02:02;;;;;;;;;2.00;2.00;;;;;26.51;43.62;100680.72;5081287;28;45450;-72
2021/07/12 08:04:27;;;;;;;;;2.50;2.50;;;;;26.57;43.75;100684.34;5081321;28;45283;-72
2021/07/12 08:06:54;;;;;;;;;2.67;2.00;;;;;26.50;43.31;100672.91;5081296;28;45365;-73
2021/07/12 08:09:19;;;;;;;;;3.00;3.00;;;;;26.54;43.85;100668.78;5081308;28;45413;-72
2021/07/12 08:11:46;;;;;;;;;3.33;3.33;;;;;26.67;43.50;100694.56;5080958;28;45349;-72
2021/07/12 08:14:12;;;;;;;;;2.25;2.25;;;;;26.50;43.45;100663.06;5081196;28;45296;-71
2021/07/12 08:16:37;;;;;;;;;3.00;3.00;;;;;26.34;43.47;100637.66;5081249;28;45316;-72
2021/07/12 08:19:03;;;;;;;;;2.00;2.00;;;;;26.47;43.47;100654.66;5080935;28;45223;-72
2021/07/12 08:21:29;;;;;;;;;2.00;2.00;;;;;26.69;43.85;100695.16;5081003;28;45468;-72
2021/07/12 08:23:54;;;;;;;;;3.75;3.00;;;;;26.64;43.51;100695.00;5081058;28;45463;-72
2021/07/12 08:26:20;;;;;;;;;3.00;2.00;;;;;26.55;43.49;100685.59;5079805;28;45197;-72
2021/07/12 08:28:45;;;;;;;;;2.33;2.33;;;;;26.36;43.71;100650.81;5080914;28;45584;-72
2021/07/12 08:31:11;;;;;;;;;3.00;3.00;;;;;26.67;43.44;100694.56;5066630;28;45242;-72
2021/07/12 08:33:37;;;;;;;;;3.75;3.00;;;;;26.59;43.54;100687.63;5060337;28;45430;-72
2021/07/12 08:36:03;;;;;;;;;2.25;2.00;;;;;26.51;43.66;100669.22;5060579;28;45338;-72
2021/07/12 08:38:28;;;;;;;;;2.00;2.00;;;;;26.63;43.68;100699.50;5072811;28;45325;-71
2021/07/12 08:40:56;;;;;;;;;4.00;2.50;;;;;26.62;43.50;100711.19;5059271;28;46736;-72
2021/07/12 08:43:21;;;;;;;;;2.00;2.00;;;;;26.60;43.74;100710.59;5080562;27;45315;-72
2021/07/12 08:45:47;;;;;;;;;2.00;2.00;;;;;26.54;43.38;100710.66;5080225;28;45308;-72
2021/07/12 08:48:14;;;;;;;;;2.50;2.50;;;;;26.62;43.80;100727.19;5080334;28;45255;-72
2021/07/12 08:50:40;;;;;;;;;2.75;2.25;;;;;26.71;43.53;100741.13;5080625;27;46173;-72
2021/07/12 08:53:05;;;;;;;;;2.33;2.00;;;;;26.68;43.75;100733.53;5080797;27;45188;-72
2021/07/12 08:55:31;;;;;;;;;3.00;1.75;;;;;26.47;43.37;100700.81;5079281;28;45263;-72
2021/07/12 08:58:10;;;;;;;;;3.00;3.00;;;;;26.49;43.78;100700.63;5080303;28;45382;-72
2021/07/12 09:00:55;;;;;;;;;3.00;3.00;;;;;26.58;43.64;100726.00;5080156;28;45390;-72
2021/07/12 09:03:28;;;;;;;;;2.00;2.00;;;;;26.59;43.37;100713.50;5080193;28;45274;-72
2021/07/12 09:06:08;;;;;;;;;3.00;3.00;;;;;26.70;43.40;100741.34;5079198;28;45313;-72
2021/07/12 09:08:42;;;;;;;;;3.67;2.00;;;;;26.48;43.24;100710.47;5080201;28;45325;-72
2021/07/12 09:11:14;;;;;;;;;3.00;3.00;;;;;26.58;43.46;100734.00;5080294;28;45396;-72
2021/07/12 09:13:48;;;;;;;;;3.00;3.00;;;;;26.69;43.66;100750.38;5078375;28;45383;-72
2021/07/12 09:16:34;;;;;;;;;3.50;3.00;;;;;26.54;43.70;100727.47;5080370;28;45318;-72
2021/07/12 09:19:05;;;;;;;;;2.00;2.00;;;;;26.67;43.70;100750.59;5080040;28;45323;-72
2021/07/12 09:21:33;;;;;;;;;3.33;2.67;;;;;26.65;43.77;100744.63;5080200;28;46268;-72
2021/07/12 09:24:11;;;;;;;;;3.00;3.00;;;;;26.67;43.81;100747.09;5080237;28;45358;-72
2021/07/12 09:26:41;;;;;;;;;2.00;2.00;;;;;26.46;44.00;100717.88;5080177;28;45247;-72
2021/07/12 09:29:06;;;;;;;;;4.25;3.00;;;;;26.59;43.37;100733.00;5079551;28;45527;-73
2021/07/12 09:31:33;;;;;;;;;1.67;1.33;;;;;26.49;43.58;100714.75;5074739;28;48253;-72
2021/07/12 09:34:02;;;;;;;;;2.00;2.00;;;;;26.51;43.83;100711.91;5059753;28;45387;-72
2021/07/12 09:36:30;;;;;;;;;2.00;2.00;;;;;26.59;43.76;100718.81;5060789;28;45267;-72
2021/07/12 09:38:56;;;;;;;;;4.00;3.00;;;;;26.29;43.68;100664.16;5067762;28;45858;-72
2021/07/12 09:41:31;;;;;;;;;3.00;3.00;;;;;26.48;43.45;100688.31;5063944;28;45414;-72
2021/07/12 09:49:08;;;;;;;;;3.00;2.00;;;;;26.44;43.84;100706.56;5076195;28;72651;-72
2021/07/12 09:51:34;;;;;;;;;3.00;3.00;;;;;26.47;43.50;100706.16;5069785;28;45279;-72
2021/07/12 09:54:20;;;;;;;;;3.00;3.00;;;;;26.27;43.56;100671.56;5059619;28;45310;-72
2021/07/12 09:56:48;;;;;;;;;3.00;3.00;;;;;26.39;43.33;100693.84;5059786;28;45451;-72
2021/07/12 09:59:15;;;;;;;;;3.00;3.00;;;;;26.58;43.55;100718.00;5062739;28;45295;-72
2021/07/12 10:01:59;;;;;;;;;3.00;3.00;;;;;26.66;43.49;100730.28;5061700;28;45608;-72
2021/07/12 10:04:25;;;;;;;;;2.00;2.00;;;;;26.41;43.64;100694.47;5072271;28;45211;-72
2021/07/12 10:06:53;;;;;;;;;2.00;2.00;;;;;26.67;43.77;100731.09;5079925;28;45426;-71
2021/07/12 10:09:23;;;;;;;;;2.33;2.33;;;;;26.50;43.65;100711.06;5098179;27;45484;-71
2021/07/12 10:11:53;;;;;;;;;2.00;2.00;;;;;26.56;44.05;100727.25;5079707;28;45387;-72
2021/07/12 10:14:20;;;;;;;;;2.00;2.00;;;;;26.59;43.47;100738.31;5082630;28;45311;-72
2021/07/12 10:16:45;;;;;;;;;4.00;4.00;;;;;26.58;43.85;100733.19;5081816;27;45377;-72
2021/07/12 10:19:11;;;;;;;;;3.00;2.00;;;;;26.48;43.73;100723.81;5081590;28;45548;-72
2021/07/12 10:21:45;;;;;;;;;3.00;2.00;;;;;26.46;43.71;100715.22;5082972;28;45484;-72
2021/07/12 10:24:11;;;;;;;;;2.75;2.75;;;;;26.63;43.93;100739.53;5083101;28;45480;-72
2021/07/12 10:26:45;;;;;;;;;2.75;2.00;;;;;26.44;43.32;100717.25;5083066;28;45309;-72
2021/07/12 10:29:14;;;;;;;;;3.00;3.00;;;;;26.65;43.60;100755.31;5082849;28;45300;-72
2021/07/12 10:32:04;;;;;;;;;2.33;2.00;;;;;26.65;43.84;100765.19;5062206;28;45605;-72
2021/07/12 10:34:40;;;;;;;;;2.25;2.25;;;;;26.65;43.77;100765.97;5074860;28;45616;-72
2021/07/12 10:37:30;;;;;;;;;4.25;4.25;;;;;26.64;43.76;100764.38;5069830;28;45272;-72
2021/07/12 10:40:08;;;;;;;;;2.00;2.00;;;;;26.39;44.13;100725.88;5070598;28;45538;-72
2021/07/12 10:42:45;;;;;;;;;3.00;3.00;;;;;26.64;44.04;100759.03;5082470;28;45470;-71
2021/07/12 10:45:15;;;;;;;;;3.00;3.00;;;;;26.50;43.44;100735.06;5082432;28;45268;-72
2021/07/12 10:47:46;;;;;;;;;2.00;2.00;;;;;26.62;43.84;100753.88;5081056;28;45455;-72
2021/07/12 10:50:33;;;;;;;;;3.50;3.50;;;;;26.63;43.83;100763.53;5081202;28;45900;-72
2021/07/12 10:53:03;;;;;;;;;3.00;3.00;;;;;26.49;44.08;100744.09;5080966;28;47049;-72
2021/07/12 10:55:34;;;;;;;;;3.33;3.33;;;;;26.63;43.76;100768.06;5082489;27;45353;-72
2021/07/12 10:58:18;;;;;;;;;2.50;2.25;;;;;26.63;44.01;100768.88;5082440;27;45244;-71
2021/07/12 11:00:45;;;;;;;;;2.67;2.67;;;;;26.60;43.73;100771.97;5080230;28;45383;-71
2021/07/12 11:03:36;;;;;;;;;2.00;2.00;;;;;26.63;43.93;100770.72;5080621;28;46691;-72
2021/07/12 11:06:10;;;;;;;;;2.00;2.00;;;;;26.59;43.72;100762.34;5069050;27;45379;-72
2021/07/12 11:08:45;;;;;;;;;3.00;3.00;;;;;26.65;43.72;100765.19;5061294;28;45410;-71
2021/07/12 11:11:18;;;;;;;;;4.00;4.00;;;;;26.64;44.05;100767.03;5063445;28;45536;-71
2021/07/12 11:14:00;;;;;;;;;3.50;3.50;;;;;26.52;43.78;100751.69;5073088;28;46696;-71
2021/07/12 11:16:35;;;;;;;;;2.00;2.00;;;;;26.52;43.66;100748.19;5060433;28;45331;-72
2021/07/12 11:19:36;;;;;;;;;2.33;2.33;;;;;26.52;43.84;100741.00;5060123;28;45311;-72
2021/07/12 11:22:13;;;;;;;;;2.00;2.00;;;;;26.63;44.06;100763.53;5061330;28;45339;-72
2021/07/12 11:25:03;;;;;;;;;3.00;3.00;;;;;26.63;43.88;100762.72;5061478;28;46260;-72
2021/07/12 11:27:36;;;;;;;;;2.33;2.33;;;;;26.52;44.19;100749.03;5070780;28;45398;-72
2021/07/12 11:30:27;;;;;;;;;3.00;3.00;;;;;26.65;44.01;100765.19;5078369;28;45300;-72
2021/07/12 11:32:53;;;;;;;;;4.00;4.00;;;;;26.52;43.96;100741.00;5061104;28;45186;-72
2021/07/12 11:35:19;;;;;;;;;2.00;2.00;;;;;26.40;43.81;100719.50;5060697;28;46977;-71
2021/07/12 11:37:44;;;;;;;;;3.33;3.33;;;;;26.66;43.75;100753.47;5074052;28;45271;-72